KGCC/GCC METAR and TAF weather

Enter ICAO airport designator
Station Type Date Time Source
KGCC METAR 2020/07/15 08:53 UTC NOAA

KGCC 150853Z AUTO 24005KT 10SM CLR 12/08 A3007 RMK AO2 SLP149 T01220078 55006


Station Type Date Time Source
KGCC Decoded METAR 2020/07/15 08:53 UTC NOAA

GILLETTE-CAMPBELL CTY AIRPORT , WY, United States (KGCC) 44-20N 105-33W 1320M
Jul 15, 2020 - 04:53 AM EDT / 2020.07.15 0853 UTC
Wind: from the WSW (240 degrees) at 6 MPH (5 KT):0
Visibility: 10 mile(s):0
Sky conditions: clear
Temperature: 54.0 F (12.2 C)
Dew Point: 46.0 F (7.8 C)
Relative Humidity: 74%
Pressure (altimeter): 30.07 in. Hg (1018 hPa)
Pressure tendency: 0.02 inches (0.6 hPa) lower than three hours ago
ob: KGCC 150853Z AUTO 24005KT 10SM CLR 12/08 A3007 RMK AO2 SLP149 T01220078 55006
cycle: 9

Station Type Date Time Source
KGCC TAF 2020/07/15 06:22 UTC NOAA

TAF KGCC 150520Z 1506/1606 20007KT P6SM SCT080
FM152100 32009KT P6SM SCT200

Example: see airport list